Time;durP1;ratioP1;P1;durP2;ratioP2;P2;SDS_P1;SDS_P2;PMS_P1;PMS_P2;Temp;Humidity;BMP_temperature;BMP_pressure;BME280_temperature;BME280_humidity;BME280_pressure;Samples;Min_cycle;Max_cycle;Signal;HPM_P1;HPM_P2
2023/11/03 00:02:23;;;;;;;1.92;0.88;;;9.50;99.90;;;;;;4860560;29;20283;-64
2023/11/03 00:04:51;;;;;;;1.60;0.63;;;9.50;99.90;;;;;;4858762;29;20186;-64
2023/11/03 00:07:17;;;;;;;0.80;0.63;;;9.40;99.90;;;;;;4860194;29;20681;-66
2023/11/03 00:09:44;;;;;;;0.60;0.60;;;9.40;99.90;;;;;;4860814;29;20576;-63
2023/11/03 00:12:11;;;;;;;2.30;0.60;;;9.40;99.90;;;;;;4860077;29;20189;-65
2023/11/03 00:14:37;;;;;;;1.92;0.63;;;9.40;99.90;;;;;;4860229;29;20197;-62
2023/11/03 00:17:03;;;;;;;1.50;0.80;;;9.40;99.90;;;;;;4860248;29;20189;-62
2023/11/03 00:19:29;;;;;;;0.90;0.73;;;9.30;99.90;;;;;;4858903;29;20186;-64
2023/11/03 00:21:55;;;;;;;0.70;0.70;;;9.30;99.90;;;;;;4859912;29;20650;-62
2023/11/03 00:24:25;;;;;;;1.13;0.90;;;9.30;99.90;;;;;;4860509;29;20182;-64
2023/11/03 00:26:54;;;;;;;2.05;0.80;;;9.20;99.90;;;;;;4860287;29;20221;-62
2023/11/03 00:29:24;;;;;;;0.80;0.70;;;9.20;99.90;;;;;;4859014;29;20198;-62
2023/11/03 00:31:51;;;;;;;1.60;0.80;;;9.20;99.90;;;;;;4860610;29;20182;-62
2023/11/03 00:34:18;;;;;;;1.90;0.90;;;9.20;99.90;;;;;;4859860;29;20579;-62
2023/11/03 00:36:47;;;;;;;1.10;0.82;;;9.20;99.90;;;;;;4858776;29;20190;-63
2023/11/03 00:39:14;;;;;;;1.67;0.80;;;9.20;99.90;;;;;;4861339;29;20190;-61
2023/11/03 00:41:41;;;;;;;0.70;0.70;;;9.20;99.90;;;;;;4863770;29;20285;-61
2023/11/03 00:44:09;;;;;;;3.13;0.80;;;9.20;99.90;;;;;;4863687;29;20185;-61
2023/11/03 00:46:35;;;;;;;1.65;0.90;;;9.20;99.90;;;;;;4862558;29;20190;-64
2023/11/03 00:49:02;;;;;;;1.48;1.05;;;9.20;99.90;;;;;;4862081;29;20186;-61
2023/11/03 00:51:28;;;;;;;1.58;1.00;;;9.20;99.90;;;;;;4847116;29;20188;-62
2023/11/03 00:53:54;;;;;;;2.47;1.10;;;9.30;99.90;;;;;;4863212;29;20602;-63
2023/11/03 00:56:20;;;;;;;2.25;1.13;;;9.30;99.90;;;;;;4862001;29;20186;-62
2023/11/03 00:58:46;;;;;;;2.25;1.33;;;9.30;99.90;;;;;;4862052;29;20182;-62
2023/11/03 01:01:13;;;;;;;3.63;1.52;;;9.30;99.90;;;;;;4846888;29;20624;-62
2023/11/03 01:03:39;;;;;;;3.30;1.60;;;9.30;99.90;;;;;;4862683;29;20197;-62
2023/11/03 01:06:07;;;;;;;2.05;1.40;;;9.40;99.90;;;;;;4863677;29;20234;-62
2023/11/03 01:08:34;;;;;;;2.55;1.90;;;9.40;99.90;;;;;;4863436;29;20238;-63
2023/11/03 01:11:02;;;;;;;3.95;1.77;;;9.40;99.90;;;;;;4862552;29;20310;-61
2023/11/03 01:13:30;;;;;;;3.47;2.08;;;9.40;99.90;;;;;;4877268;29;20186;-62
2023/11/03 01:15:56;;;;;;;4.78;1.90;;;9.40;99.90;;;;;;4877537;29;20194;-62
2023/11/03 01:18:22;;;;;;;2.88;2.03;;;9.50;99.90;;;;;;4863138;29;20205;-64
2023/11/03 01:20:52;;;;;;;3.63;1.92;;;9.50;99.90;;;;;;4861891;29;20221;-61
2023/11/03 01:23:18;;;;;;;3.33;1.67;;;9.60;99.90;;;;;;4862010;29;20178;-63
2023/11/03 01:25:50;;;;;;;4.32;1.83;;;9.60;99.90;;;;;;4861706;29;20213;-64
2023/11/03 01:28:17;;;;;;;4.65;2.40;;;9.60;99.90;;;;;;4845768;29;20194;-62
2023/11/03 01:30:44;;;;;;;2.95;2.30;;;9.60;99.90;;;;;;4861838;29;20213;-63
2023/11/03 01:33:10;;;;;;;4.03;2.45;;;9.70;99.90;;;;;;4862441;29;20194;-63
2023/11/03 01:35:37;;;;;;;5.00;2.25;;;9.70;99.90;;;;;;4861366;29;20186;-66
2023/11/03 01:38:04;;;;;;;3.83;2.40;;;9.70;99.90;;;;;;4862565;29;20186;-66
2023/11/03 01:40:30;;;;;;;4.80;2.65;;;9.80;99.90;;;;;;4861333;29;20249;-63
2023/11/03 01:43:00;;;;;;;5.53;2.60;;;9.80;99.90;;;;;;4862850;29;20170;-63
2023/11/03 01:45:26;;;;;;;5.40;2.25;;;9.70;99.90;;;;;;4862437;29;20193;-64
2023/11/03 01:47:52;;;;;;;4.15;2.10;;;9.70;99.90;;;;;;4862188;29;20190;-63
2023/11/03 01:50:18;;;;;;;5.50;2.88;;;9.70;99.90;;;;;;4862292;29;20273;-63
2023/11/03 01:52:46;;;;;;;4.45;2.40;;;9.80;99.90;;;;;;4861585;29;20247;-65
2023/11/03 01:55:14;;;;;;;4.53;2.08;;;9.80;99.90;;;;;;4846247;29;20186;-65
2023/11/03 01:57:40;;;;;;;3.08;2.22;;;9.80;99.90;;;;;;4861416;29;20185;-63
2023/11/03 02:00:07;;;;;;;4.68;2.00;;;9.80;99.90;;;;;;4845754;29;20695;-65
2023/11/03 02:02:34;;;;;;;4.95;2.33;;;9.80;99.90;;;;;;4862062;29;20312;-64
2023/11/03 02:05:02;;;;;;;5.97;2.28;;;9.80;99.90;;;;;;4861304;29;20190;-63
2023/11/03 02:07:29;;;;;;;3.53;2.10;;;9.80;99.90;;;;;;4861121;29;20631;-63
2023/11/03 02:09:55;;;;;;;4.03;2.10;;;9.80;99.90;;;;;;4862157;29;20182;-62
2023/11/03 02:12:21;;;;;;;3.28;2.30;;;9.90;99.90;;;;;;4861904;29;20640;-65
2023/11/03 02:14:49;;;;;;;4.78;2.20;;;9.90;99.90;;;;;;4860913;29;20679;-65
2023/11/03 02:17:15;;;;;;;3.00;2.30;;;9.80;99.90;;;;;;4860834;29;20190;-62
2023/11/03 02:19:41;;;;;;;2.83;2.00;;;9.80;99.90;;;;;;4876050;29;20696;-62
2023/11/03 02:22:07;;;;;;;3.13;1.98;;;9.80;99.90;;;;;;4861788;29;20201;-64
2023/11/03 02:24:34;;;;;;;2.80;2.20;;;9.80;99.90;;;;;;4860979;29;20194;-64
2023/11/03 02:27:00;;;;;;;3.35;1.92;;;9.80;99.90;;;;;;4862252;29;20217;-61
2023/11/03 02:29:25;;;;;;;3.95;2.08;;;9.80;99.90;;;;;;4860624;29;20210;-64
2023/11/03 02:31:52;;;;;;;3.63;2.40;;;9.80;99.90;;;;;;4861146;29;20186;-62
2023/11/03 02:34:18;;;;;;;5.72;2.20;;;9.80;99.90;;;;;;4845552;29;20250;-63
2023/11/03 02:36:44;;;;;;;4.57;2.10;;;9.90;99.90;;;;;;4861804;29;20525;-62
2023/11/03 02:39:10;;;;;;;5.20;1.92;;;9.80;99.90;;;;;;4875907;29;20194;-63
2023/11/03 02:41:37;;;;;;;3.83;1.95;;;9.80;99.90;;;;;;4861544;29;20703;-62
2023/11/03 02:44:04;;;;;;;4.10;2.00;;;9.80;99.90;;;;;;4845449;29;20270;-65
2023/11/03 02:46:30;;;;;;;4.78;1.95;;;9.80;99.90;;;;;;4860159;29;20257;-63
2023/11/03 02:48:56;;;;;;;3.40;1.50;;;9.80;99.90;;;;;;4860105;29;20721;-64
2023/11/03 02:51:22;;;;;;;3.90;2.03;;;9.80;99.90;;;;;;4845043;29;20557;-61
2023/11/03 02:53:48;;;;;;;4.07;2.00;;;9.70;99.90;;;;;;4875625;29;20222;-63
2023/11/03 02:56:24;;;;;;;3.03;1.90;;;9.70;99.90;;;;;;4860568;29;20663;-62
2023/11/03 02:58:54;;;;;;;3.83;1.88;;;9.70;99.90;;;;;;4860249;29;20193;-62
2023/11/03 03:01:27;;;;;;;3.67;2.08;;;9.70;99.90;;;;;;4859281;29;20228;-63
2023/11/03 03:03:54;;;;;;;2.67;1.77;;;9.70;99.90;;;;;;4861187;29;20189;-65
2023/11/03 03:06:19;;;;;;;4.43;1.88;;;9.70;99.90;;;;;;4861146;29;20625;-63
2023/11/03 03:08:45;;;;;;;2.45;1.80;;;9.70;99.90;;;;;;4861266;29;20331;-62
2023/11/03 03:11:11;;;;;;;4.72;1.90;;;9.60;99.90;;;;;;4861231;29;20581;-62
2023/11/03 03:13:38;;;;;;;4.55;2.20;;;9.60;99.90;;;;;;4859517;29;20234;-62
2023/11/03 03:16:04;;;;;;;3.30;2.33;;;9.60;99.90;;;;;;4860030;29;20190;-64
2023/11/03 03:18:30;;;;;;;4.32;2.47;;;9.60;99.90;;;;;;4875033;29;20197;-62
2023/11/03 03:20:56;;;;;;;5.65;2.20;;;9.70;99.90;;;;;;4859552;29;20218;-62
2023/11/03 03:23:23;;;;;;;3.10;2.17;;;9.60;99.90;;;;;;4875130;29;20189;-62
2023/11/03 03:25:48;;;;;;;4.95;2.25;;;9.60;99.90;;;;;;4859942;29;20248;-65
2023/11/03 03:28:15;;;;;;;3.63;2.30;;;9.60;99.90;;;;;;4861059;29;20572;-64
2023/11/03 03:30:42;;;;;;;6.30;2.55;;;9.60;99.90;;;;;;4860847;29;20663;-64
2023/11/03 03:33:08;;;;;;;2.15;1.90;;;9.60;99.90;;;;;;4860258;29;20208;-65
2023/11/03 03:35:34;;;;;;;4.60;2.40;;;9.60;99.90;;;;;;4859775;29;20185;-64
2023/11/03 03:38:00;;;;;;;8.23;2.30;;;9.60;99.90;;;;;;4860805;29;20213;-60
2023/11/03 03:40:26;;;;;;;4.38;2.38;;;9.60;99.90;;;;;;4859797;29;20552;-62
2023/11/03 03:42:52;;;;;;;4.95;2.58;;;9.70;99.90;;;;;;4859368;29;20536;-68
2023/11/03 03:45:18;;;;;;;5.30;2.40;;;9.70;99.90;;;;;;4860609;29;20210;-67
2023/11/03 03:47:44;;;;;;;8.75;2.55;;;9.60;99.90;;;;;;4860076;29;20189;-61
2023/11/03 03:50:09;;;;;;;5.35;2.08;;;9.70;99.90;;;;;;4858918;29;20228;-67
2023/11/03 03:52:35;;;;;;;6.85;2.22;;;9.70;99.90;;;;;;4859428;29;20292;-63
2023/11/03 03:55:02;;;;;;;3.35;2.25;;;9.70;99.90;;;;;;4859366;29;20703;-63
2023/11/03 03:57:29;;;;;;;4.60;2.20;;;9.70;99.90;;;;;;4860189;29;20202;-68
2023/11/03 03:59:55;;;;;;;5.90;2.28;;;9.70;99.90;;;;;;4859789;29;20299;-68
2023/11/03 04:02:20;;;;;;;4.25;2.38;;;9.80;99.90;;;;;;4859927;29;20206;-68
2023/11/03 04:04:46;;;;;;;3.42;2.20;;;9.80;99.90;;;;;;4859585;29;20205;-66
2023/11/03 04:07:12;;;;;;;6.10;2.30;;;9.80;99.90;;;;;;4860390;29;20301;-63
2023/11/03 04:09:39;;;;;;;3.17;2.10;;;9.90;99.90;;;;;;4860023;29;20186;-61
2023/11/03 04:12:05;;;;;;;2.45;1.90;;;9.80;99.90;;;;;;4860082;29;20221;-69
2023/11/03 04:14:31;;;;;;;4.70;2.17;;;9.90;99.90;;;;;;4859056;29;20189;-67
2023/11/03 04:16:57;;;;;;;4.65;2.13;;;9.90;99.90;;;;;;4859993;29;20563;-62
2023/11/03 04:19:23;;;;;;;3.63;1.90;;;9.90;99.90;;;;;;4860217;29;20209;-63
2023/11/03 04:21:48;;;;;;;3.00;2.00;;;9.90;99.90;;;;;;4860194;29;20320;-65
2023/11/03 04:24:14;;;;;;;3.38;2.20;;;9.90;99.90;;;;;;4859914;29;20185;-65
2023/11/03 04:26:41;;;;;;;7.25;2.00;;;10.00;99.90;;;;;;4860080;29;20635;-62
2023/11/03 04:29:07;;;;;;;5.65;2.33;;;10.00;99.90;;;;;;4860213;29;20214;-65
2023/11/03 04:31:36;;;;;;;4.47;2.40;;;10.00;99.90;;;;;;4859459;29;20182;-60
2023/11/03 04:34:02;;;;;;;3.10;2.20;;;10.00;99.90;;;;;;4860921;29;20178;-59
2023/11/03 04:36:29;;;;;;;4.75;2.25;;;10.00;99.90;;;;;;4861333;29;20186;-61
2023/11/03 04:38:55;;;;;;;4.22;2.17;;;10.00;99.90;;;;;;4861005;29;20185;-62
2023/11/03 04:41:21;;;;;;;4.13;2.22;;;10.00;99.90;;;;;;4860610;29;20217;-61
2023/11/03 04:43:47;;;;;;;5.70;2.35;;;10.00;99.90;;;;;;4860842;29;20695;-61
2023/11/03 04:46:13;;;;;;;3.20;2.10;;;9.90;99.90;;;;;;4860574;29;20674;-62
2023/11/03 04:48:39;;;;;;;4.32;2.25;;;9.90;99.90;;;;;;4861049;29;20220;-61
2023/11/03 04:51:06;;;;;;;5.18;2.20;;;9.90;99.90;;;;;;4860567;29;20209;-61
2023/11/03 04:53:32;;;;;;;5.18;2.28;;;9.90;99.90;;;;;;4860553;29;20193;-62
2023/11/03 04:55:58;;;;;;;5.35;2.50;;;9.90;99.90;;;;;;4860450;29;20186;-62
2023/11/03 04:58:24;;;;;;;4.22;2.30;;;9.80;99.90;;;;;;4860693;29;20631;-61
2023/11/03 05:00:51;;;;;;;6.45;2.38;;;9.80;99.90;;;;;;4860326;29;20690;-62
2023/11/03 05:03:19;;;;;;;7.18;2.38;;;9.80;99.90;;;;;;4860112;29;20182;-59
2023/11/03 05:05:45;;;;;;;4.80;2.13;;;9.80;99.90;;;;;;4860738;29;20234;-60
2023/11/03 05:08:11;;;;;;;5.15;1.95;;;9.80;99.90;;;;;;4860922;29;20194;-60
2023/11/03 05:10:38;;;;;;;5.03;2.20;;;9.80;99.90;;;;;;4859543;29;20244;-61
2023/11/03 05:13:04;;;;;;;6.53;2.30;;;9.80;99.90;;;;;;4859487;29;20190;-61
2023/11/03 05:15:30;;;;;;;6.90;2.10;;;9.80;99.90;;;;;;4859204;29;20194;-62
2023/11/03 05:17:58;;;;;;;5.43;2.10;;;9.70;99.90;;;;;;4859894;29;20178;-60
2023/11/03 05:20:25;;;;;;;4.68;2.00;;;9.70;99.90;;;;;;4859897;29;20213;-61
2023/11/03 05:22:51;;;;;;;3.50;2.08;;;9.70;99.90;;;;;;4860183;29;20635;-61
2023/11/03 05:25:17;;;;;;;2.95;2.00;;;9.80;99.90;;;;;;4876154;29;20310;-60
2023/11/03 05:27:42;;;;;;;4.45;2.17;;;9.80;99.90;;;;;;4863624;29;20254;-64
2023/11/03 05:30:09;;;;;;;3.97;2.35;;;9.70;99.90;;;;;;4863901;29;20591;-59
2023/11/03 05:32:35;;;;;;;5.10;2.40;;;9.80;99.90;;;;;;4861904;29;20640;-61
2023/11/03 05:35:01;;;;;;;4.15;1.98;;;9.80;99.90;;;;;;4862535;29;20221;-61
2023/11/03 05:37:27;;;;;;;3.80;2.38;;;9.80;99.90;;;;;;4862265;29;20232;-62
2023/11/03 05:39:53;;;;;;;4.28;2.13;;;9.80;99.90;;;;;;4863653;29;20278;-60
2023/11/03 05:42:19;;;;;;;3.08;2.10;;;9.80;99.90;;;;;;4863006;29;20186;-62
2023/11/03 05:44:45;;;;;;;5.95;2.28;;;9.80;99.90;;;;;;4863162;29;20598;-61
2023/11/03 05:47:12;;;;;;;4.85;2.38;;;9.80;99.90;;;;;;4862971;29;20494;-62
2023/11/03 05:49:38;;;;;;;5.32;2.45;;;9.80;99.90;;;;;;4863201;29;20198;-61
2023/11/03 05:52:04;;;;;;;4.95;2.47;;;9.80;99.90;;;;;;4861694;29;20238;-61
2023/11/03 05:54:30;;;;;;;5.30;2.22;;;9.80;99.90;;;;;;4862044;29;20210;-64
2023/11/03 05:56:56;;;;;;;3.70;1.83;;;9.80;99.90;;;;;;4863645;29;20186;-60
2023/11/03 05:59:22;;;;;;;5.90;2.10;;;9.90;99.90;;;;;;4862222;29;20217;-60
2023/11/03 06:01:48;;;;;;;3.78;1.98;;;9.90;99.90;;;;;;4862822;29;20233;-60
2023/11/03 06:04:14;;;;;;;5.32;2.00;;;9.90;99.90;;;;;;4863184;29;20231;-59
2023/11/03 06:06:41;;;;;;;5.28;1.80;;;9.90;99.90;;;;;;4863379;29;20237;-59
2023/11/03 06:09:07;;;;;;;6.13;2.10;;;9.90;99.90;;;;;;4863029;29;20190;-60
2023/11/03 06:11:33;;;;;;;4.43;2.20;;;9.90;99.90;;;;;;4861914;29;20553;-61
2023/11/03 06:13:59;;;;;;;5.35;2.17;;;9.90;99.90;;;;;;4863241;29;20659;-60
2023/11/03 06:16:25;;;;;;;3.42;1.88;;;10.00;99.90;;;;;;4862603;29;20299;-61
2023/11/03 06:18:51;;;;;;;4.20;1.88;;;9.90;99.90;;;;;;4863180;29;20221;-62
2023/11/03 06:21:17;;;;;;;6.15;2.15;;;9.90;99.90;;;;;;4862758;29;20586;-61
2023/11/03 06:23:43;;;;;;;2.28;1.77;;;10.00;99.90;;;;;;4861443;29;20193;-61
2023/11/03 06:26:09;;;;;;;3.33;1.75;;;9.90;99.90;;;;;;4862052;29;20696;-61
2023/11/03 06:28:35;;;;;;;4.28;2.17;;;9.90;99.90;;;;;;4845919;29;20217;-61
2023/11/03 06:31:01;;;;;;;3.38;1.80;;;9.90;99.90;;;;;;4861393;29;20194;-61
2023/11/03 06:33:27;;;;;;;3.33;1.60;;;10.00;99.90;;;;;;4862614;29;20194;-63
2023/11/03 06:35:53;;;;;;;5.75;1.83;;;10.00;99.90;;;;;;4861182;29;20190;-61
2023/11/03 06:38:19;;;;;;;5.70;2.20;;;10.00;99.90;;;;;;4862031;29;20205;-60
2023/11/03 06:40:45;;;;;;;5.57;1.80;;;10.00;99.90;;;;;;4862211;29;20209;-62
2023/11/03 06:43:11;;;;;;;5.07;2.20;;;10.00;99.90;;;;;;4862487;29;20190;-64
2023/11/03 06:45:37;;;;;;;4.25;2.00;;;10.00;99.90;;;;;;4862535;29;20201;-62
2023/11/03 06:48:03;;;;;;;4.28;2.20;;;10.00;99.90;;;;;;4860935;29;20197;-62
2023/11/03 06:50:29;;;;;;;3.70;2.08;;;10.00;99.90;;;;;;4861629;29;20183;-61
2023/11/03 06:52:56;;;;;;;2.85;1.80;;;10.00;99.90;;;;;;4861815;29;20269;-65
2023/11/03 06:55:21;;;;;;;4.35;2.10;;;10.00;99.90;;;;;;4862192;29;20182;-60
2023/11/03 06:57:48;;;;;;;8.82;3.80;;;10.00;99.90;;;;;;4860783;29;20189;-62
2023/11/03 07:00:16;;;;;;;6.22;2.13;;;10.10;99.90;;;;;;4861610;29;20221;-64
2023/11/03 07:02:42;;;;;;;3.42;1.90;;;10.10;99.90;;;;;;4860938;29;20669;-70
2023/11/03 07:05:08;;;;;;;2.45;2.00;;;10.10;99.90;;;;;;4874922;29;20250;-67
2023/11/03 07:07:36;;;;;;;3.13;1.92;;;10.10;99.90;;;;;;4861174;29;20591;-62
2023/11/03 07:10:03;;;;;;;6.20;2.20;;;10.10;99.90;;;;;;4875077;29;20183;-66
2023/11/03 07:12:30;;;;;;;7.57;2.00;;;10.20;99.90;;;;;;4861081;29;20189;-65
2023/11/03 07:14:56;;;;;;;4.78;2.35;;;10.20;99.90;;;;;;4860277;29;20197;-61
2023/11/03 07:17:22;;;;;;;5.90;2.15;;;10.20;99.90;;;;;;4860765;29;20190;-66
2023/11/03 07:19:48;;;;;;;3.50;1.90;;;10.20;99.90;;;;;;4861053;29;20243;-65
2023/11/03 07:22:18;;;;;;;2.60;1.88;;;10.20;99.90;;;;;;4859722;29;20190;-65
2023/11/03 07:24:44;;;;;;;7.15;2.20;;;10.30;99.90;;;;;;4859738;29;20273;-68
2023/11/03 07:27:11;;;;;;;4.60;2.17;;;10.30;99.90;;;;;;4860895;29;20186;-61
2023/11/03 07:29:37;;;;;;;4.32;2.08;;;10.30;99.90;;;;;;4859352;29;20225;-65
2023/11/03 07:32:04;;;;;;;5.43;2.22;;;10.30;99.90;;;;;;4844112;29;20193;-62
2023/11/03 07:34:30;;;;;;;6.32;2.40;;;10.30;99.90;;;;;;4874836;29;20205;-61
2023/11/03 07:36:57;;;;;;;3.78;1.90;;;10.30;99.90;;;;;;4860590;29;20182;-67
2023/11/03 07:39:23;;;;;;;4.38;2.15;;;10.30;99.90;;;;;;4843997;29;20202;-68
2023/11/03 07:41:49;;;;;;;5.55;2.22;;;10.30;99.90;;;;;;4860613;29;20250;-62
2023/11/03 07:44:17;;;;;;;5.25;2.13;;;10.30;99.90;;;;;;4874954;29;20210;-73
2023/11/03 07:46:43;;;;;;;4.57;2.47;;;10.30;99.90;;;;;;4860382;29;20574;-73
2023/11/03 07:49:09;;;;;;;5.82;2.50;;;10.30;99.90;;;;;;4860123;29;20186;-65
2023/11/03 07:51:35;;;;;;;6.05;2.67;;;10.30;99.90;;;;;;4859965;29;20296;-64
2023/11/03 07:54:01;;;;;;;7.40;2.60;;;10.30;99.90;;;;;;4860143;29;20251;-63
2023/11/03 07:56:28;;;;;;;7.97;2.50;;;10.30;99.90;;;;;;4859339;29;20208;-61
2023/11/03 07:58:55;;;;;;;5.45;2.65;;;10.30;99.90;;;;;;4859924;29;20240;-65
2023/11/03 08:01:21;;;;;;;5.10;2.67;;;10.30;99.90;;;;;;4859574;29;20214;-70
2023/11/03 08:03:47;;;;;;;10.00;2.80;;;10.30;99.90;;;;;;4860119;29;20330;-70
2023/11/03 08:06:13;;;;;;;6.22;2.60;;;10.30;99.90;;;;;;4860071;29;20230;-65
2023/11/03 08:08:40;;;;;;;4.97;2.30;;;10.30;99.90;;;;;;4859907;29;20205;-64
2023/11/03 08:11:08;;;;;;;3.38;2.40;;;10.40;99.90;;;;;;4859943;29;20198;-64
2023/11/03 08:13:34;;;;;;;5.75;2.47;;;10.30;99.90;;;;;;4860290;29;20184;-63
2023/11/03 08:16:03;;;;;;;6.32;2.90;;;10.30;99.90;;;;;;4858762;29;20190;-63
2023/11/03 08:18:31;;;;;;;6.38;3.00;;;10.30;99.90;;;;;;4859569;29;20633;-62
2023/11/03 08:20:58;;;;;;;7.07;3.03;;;10.30;99.90;;;;;;4859458;29;20372;-61
2023/11/03 08:23:24;;;;;;;6.32;3.00;;;10.40;99.90;;;;;;4843365;29;20194;-64
2023/11/03 08:25:50;;;;;;;7.57;2.92;;;10.40;99.90;;;;;;4858737;29;20285;-63
2023/11/03 08:28:16;;;;;;;8.35;3.30;;;10.40;99.90;;;;;;4858340;29;20186;-62
2023/11/03 08:30:42;;;;;;;8.18;3.20;;;10.40;99.90;;;;;;4858290;29;20650;-62
2023/11/03 08:33:08;;;;;;;8.85;3.22;;;10.40;99.90;;;;;;4858494;29;20198;-61
2023/11/03 08:35:35;;;;;;;7.85;3.53;;;10.40;99.90;;;;;;4859318;29;20182;-65
2023/11/03 08:38:04;;;;;;;6.15;3.50;;;10.50;99.90;;;;;;4859520;29;20178;-62
2023/11/03 08:40:30;;;;;;;6.70;2.83;;;10.40;99.90;;;;;;4859673;29;20213;-62
2023/11/03 08:42:56;;;;;;;9.23;3.47;;;10.50;99.90;;;;;;4859852;29;20181;-64
2023/11/03 08:45:23;;;;;;;13.40;3.80;;;10.50;99.90;;;;;;4859541;29;20201;-68
2023/11/03 08:47:51;;;;;;;9.07;3.60;;;10.50;99.90;;;;;;4873394;29;20205;-65
2023/11/03 08:50:17;;;;;;;10.43;3.50;;;10.50;99.90;;;;;;4859717;29;20269;-67
2023/11/03 08:52:47;;;;;;;8.35;3.65;;;10.50;99.90;;;;;;4857941;29;20194;-66
2023/11/03 08:55:14;;;;;;;9.25;3.20;;;10.60;99.90;;;;;;4858448;29;20552;-63
2023/11/03 08:57:42;;;;;;;7.65;3.10;;;10.60;99.90;;;;;;4858977;29;20186;-62
2023/11/03 09:00:09;;;;;;;8.18;3.35;;;10.60;99.90;;;;;;4860732;29;20225;-67
2023/11/03 09:02:36;;;;;;;10.05;3.30;;;10.60;99.90;;;;;;4876815;29;20230;-61
2023/11/03 09:05:07;;;;;;;6.28;2.97;;;10.60;99.90;;;;;;4846436;29;20198;-65
2023/11/03 09:07:35;;;;;;;12.85;4.72;;;10.70;99.90;;;;;;4863302;29;20174;-66
2023/11/03 09:10:06;;;;;;;11.60;3.47;;;10.70;99.90;;;;;;4862474;29;20566;-61
2023/11/03 09:12:36;;;;;;;8.45;3.50;;;10.70;99.90;;;;;;4862774;29;20174;-61
2023/11/03 09:15:07;;;;;;;8.73;2.92;;;10.70;99.90;;;;;;4863232;29;20235;-61
2023/11/03 09:17:34;;;;;;;9.65;3.47;;;10.70;99.90;;;;;;4862789;29;20630;-69
2023/11/03 09:20:00;;;;;;;9.07;3.42;;;10.70;99.90;;;;;;4862895;29;20225;-62
2023/11/03 09:22:27;;;;;;;7.78;3.28;;;10.80;99.90;;;;;;4861490;29;20190;-65
2023/11/03 09:24:57;;;;;;;12.07;3.30;;;10.80;99.90;;;;;;4862371;29;20193;-64
2023/11/03 09:27:23;;;;;;;10.13;3.90;;;10.80;99.90;;;;;;4861736;29;20439;-65
2023/11/03 09:29:50;;;;;;;11.70;3.90;;;10.90;99.90;;;;;;4860350;29;20911;-65
2023/11/03 09:32:19;;;;;;;11.20;3.30;;;11.00;99.90;;;;;;4860496;29;20455;-68
2023/11/03 09:34:46;;;;;;;9.10;3.20;;;11.00;99.90;;;;;;4861971;29;20660;-67
2023/11/03 09:37:14;;;;;;;9.70;3.33;;;11.00;99.90;;;;;;4861785;29;20280;-61
2023/11/03 09:39:42;;;;;;;10.27;3.20;;;11.00;99.90;;;;;;4862148;29;20265;-63
2023/11/03 09:42:11;;;;;;;9.52;3.45;;;11.00;99.90;;;;;;4862044;29;20189;-65
2023/11/03 09:44:37;;;;;;;8.25;3.65;;;11.00;99.90;;;;;;4861970;29;20218;-61
2023/11/03 09:47:05;;;;;;;12.65;3.97;;;11.00;99.90;;;;;;4861911;29;20182;-63
2023/11/03 09:49:32;;;;;;;16.13;3.70;;;11.00;99.90;;;;;;4860821;29;20213;-62
2023/11/03 09:52:05;;;;;;;13.25;3.83;;;11.00;99.90;;;;;;4876560;29;20186;-72
2023/11/03 09:54:39;;;;;;;13.70;3.90;;;11.00;99.90;;;;;;4862084;29;20616;-65
2023/11/03 09:57:08;;;;;;;13.13;4.10;;;11.00;99.90;;;;;;4861926;29;20587;-72
2023/11/03 09:59:37;;;;;;;10.55;3.85;;;11.00;99.90;;;;;;4861606;29;20244;-63
2023/11/03 10:02:15;;;;;;;13.35;3.83;;;11.00;99.90;;;;;;4860988;29;20276;-62
2023/11/03 10:04:42;;;;;;;11.50;3.80;;;11.10;99.90;;;;;;4862338;29;20234;-60
2023/11/03 10:07:12;;;;;;;14.43;4.38;;;11.10;99.90;;;;;;4862235;29;20225;-69
2023/11/03 10:09:45;;;;;;;21.63;4.28;;;11.20;99.90;;;;;;4861825;29;20194;-67
2023/11/03 10:12:15;;;;;;;16.35;3.90;;;11.30;99.90;;;;;;4860713;29;20246;-62
2023/11/03 10:14:46;;;;;;;17.35;4.53;;;11.40;99.90;;;;;;4861610;29;20174;-64
2023/11/03 10:17:16;;;;;;;17.10;4.25;;;11.50;99.90;;;;;;4860728;29;20218;-62
2023/11/03 10:19:43;;;;;;;14.15;3.45;;;11.60;99.90;;;;;;4861830;29;20645;-65
2023/11/03 10:22:10;;;;;;;17.30;4.60;;;11.60;99.90;;;;;;4862285;29;20186;-68
2023/11/03 10:24:39;;;;;;;11.82;3.60;;;11.60;99.90;;;;;;4876443;29;20186;-64
2023/11/03 10:27:06;;;;;;;16.17;3.92;;;11.60;99.90;;;;;;4860556;29;20222;-62
2023/11/03 10:29:33;;;;;;;19.10;3.60;;;11.70;99.90;;;;;;4875453;29;20197;-71
2023/11/03 10:31:58;;;;;;;14.23;3.67;;;11.80;99.90;;;;;;4861518;29;20201;-68
2023/11/03 10:34:24;;;;;;;13.38;3.72;;;11.80;99.90;;;;;;4860520;29;20190;-62
2023/11/03 10:36:51;;;;;;;18.67;3.90;;;11.80;99.90;;;;;;4875754;29;20545;-64
2023/11/03 10:39:18;;;;;;;12.63;3.65;;;11.80;99.90;;;;;;4875782;29;20273;-68
2023/11/03 10:41:44;;;;;;;18.50;3.85;;;11.90;99.90;;;;;;4861506;29;20218;-67
2023/11/03 10:44:17;;;;;;;17.65;3.15;;;11.90;99.90;;;;;;4861465;29;20182;-63
2023/11/03 10:46:52;;;;;;;17.42;3.65;;;12.00;99.90;;;;;;4844650;29;20190;-62
2023/11/03 10:49:32;;;;;;;15.20;3.60;;;12.00;99.90;;;;;;4861081;29;20181;-66
2023/11/03 10:52:13;;;;;;;13.40;3.15;;;12.10;99.90;;;;;;4861321;29;20174;-62
2023/11/03 10:55:20;;;;;;;17.30;3.75;;;12.10;99.90;;;;;;4861100;29;20215;-62
2023/11/03 10:57:49;;;;;;;17.60;3.53;;;12.10;99.90;;;;;;4853107;29;20204;-61
2023/11/03 11:00:41;;;;;;;20.88;4.10;;;12.10;99.90;;;;;;4859913;29;20736;-62
2023/11/03 11:03:19;;;;;;;16.63;3.80;;;12.20;99.90;;;;;;4859788;29;20215;-71
2023/11/03 11:05:53;;;;;;;11.80;3.78;;;12.20;99.90;;;;;;4860205;29;20323;-65
2023/11/03 11:08:22;;;;;;;21.33;3.53;;;12.20;99.90;;;;;;4860603;29;20498;-61
2023/11/03 11:10:48;;;;;;;22.40;4.22;;;12.30;99.90;;;;;;4874348;29;20645;-66
2023/11/03 11:13:22;;;;;;;19.50;3.85;;;12.40;99.90;;;;;;4859941;29;20222;-65
2023/11/03 11:15:56;;;;;;;15.20;3.20;;;12.40;99.90;;;;;;4860693;29;20186;-69
2023/11/03 11:18:33;;;;;;;13.70;4.07;;;12.50;99.90;;;;;;4860239;29;20256;-64
2023/11/03 11:21:06;;;;;;;11.95;3.60;;;12.60;99.90;;;;;;4860285;29;20202;-62
2023/11/03 11:23:35;;;;;;;17.73;3.55;;;12.60;99.90;;;;;;4859600;29;20250;-68
2023/11/03 11:26:02;;;;;;;16.02;3.75;;;12.60;99.90;;;;;;4859910;29;20189;-64
2023/11/03 11:28:32;;;;;;;17.73;3.72;;;12.70;99.90;;;;;;4859833;29;20227;-65
2023/11/03 11:30:58;;;;;;;18.45;4.53;;;12.70;99.90;;;;;;4860494;29;20204;-68
2023/11/03 11:33:30;;;;;;;13.15;3.50;;;12.70;99.90;;;;;;4860287;29;20178;-62
2023/11/03 11:35:56;;;;;;;15.90;4.00;;;12.70;99.90;;;;;;4860390;29;20254;-64
2023/11/03 11:38:26;;;;;;;17.08;3.45;;;12.80;99.90;;;;;;4859506;29;20239;-64
2023/11/03 11:40:53;;;;;;;13.73;3.35;;;12.80;99.90;;;;;;4859852;29;20210;-77
2023/11/03 11:43:19;;;;;;;14.65;3.20;;;12.80;99.90;;;;;;4859745;29;20185;-71
2023/11/03 11:45:48;;;;;;;14.70;3.63;;;12.80;99.90;;;;;;4860268;29;20197;-69
2023/11/03 11:48:16;;;;;;;12.82;3.17;;;12.90;99.90;;;;;;4858568;29;20230;-63
2023/11/03 11:50:46;;;;;;;15.30;3.40;;;12.90;99.90;;;;;;4860001;29;20294;-69
2023/11/03 11:53:14;;;;;;;12.02;3.13;;;12.90;99.90;;;;;;4859265;29;20185;-65
2023/11/03 11:55:40;;;;;;;15.05;3.03;;;13.00;99.90;;;;;;4860083;29;20214;-68
2023/11/03 11:58:18;;;;;;;12.77;3.08;;;13.10;99.90;;;;;;4860069;29;20269;-65
2023/11/03 12:00:44;;;;;;;12.93;3.25;;;13.20;99.90;;;;;;4859813;29;20298;-63
2023/11/03 12:03:10;;;;;;;15.38;2.80;;;13.20;99.90;;;;;;4874106;29;20182;-69
2023/11/03 12:05:39;;;;;;;16.05;3.70;;;13.20;99.90;;;;;;4858268;29;20759;-68
2023/11/03 12:08:06;;;;;;;12.48;2.88;;;13.30;99.90;;;;;;4860025;29;20186;-68
2023/11/03 12:10:33;;;;;;;15.05;3.13;;;13.30;99.90;;;;;;4859436;29;20228;-74
2023/11/03 12:13:02;;;;;;;16.08;3.50;;;13.30;99.90;;;;;;4859812;29;20186;-70
2023/11/03 12:15:28;;;;;;;16.90;3.53;;;13.30;99.90;;;;;;4860310;29;20216;-77
2023/11/03 12:17:54;;;;;;;19.65;3.20;;;13.30;99.90;;;;;;4858640;29;20280;-70
2023/11/03 12:20:29;;;;;;;13.45;3.03;;;13.30;99.90;;;;;;4872754;29;20201;-68
2023/11/03 12:22:59;;;;;;;15.38;2.92;;;13.40;99.90;;;;;;4859224;29;20186;-65
2023/11/03 12:25:25;;;;;;;14.75;3.08;;;13.40;99.90;;;;;;4860028;29;20193;-73
2023/11/03 12:27:54;;;;;;;15.27;3.00;;;13.50;99.90;;;;;;4859751;29;20197;-68
2023/11/03 12:30:23;;;;;;;12.30;3.08;;;13.60;99.90;;;;;;4859682;29;20190;-67
2023/11/03 12:33:02;;;;;;;16.70;3.17;;;13.60;99.90;;;;;;4859595;29;20193;-72
2023/11/03 12:35:31;;;;;;;11.20;2.90;;;13.70;99.90;;;;;;4861332;29;20727;-69
2023/11/03 12:38:17;;;;;;;10.45;2.67;;;13.70;99.90;;;;;;4875958;29;20162;-64
2023/11/03 12:40:43;;;;;;;14.35;2.90;;;13.60;99.90;;;;;;4862330;29;20202;-65
2023/11/03 12:43:12;;;;;;;13.80;2.63;;;13.50;99.90;;;;;;4863631;29;20200;-69
2023/11/03 12:45:39;;;;;;;12.10;2.88;;;13.40;99.90;;;;;;4863112;29;20230;-63
2023/11/03 12:48:24;;;;;;;11.95;2.65;;;13.30;99.90;;;;;;4863387;29;20193;-63
2023/11/03 12:50:57;;;;;;;10.35;2.50;;;13.30;99.90;;;;;;4863100;29;20197;-69